Time;durP1;ratioP1;P1;durP2;ratioP2;P2;SDS_P1;SDS_P2;PMS_P1;PMS_P2;Temp;Humidity;BMP_temperature;BMP_pressure;BME280_temperature;BME280_humidity;BME280_pressure;Samples;Min_cycle;Max_cycle;Signal;HPM_P1;HPM_P2
2022/11/25 00:00:10;;;;;;;20.67;12.25;;;6.70;99.90;;;;;;5095679;28;20220;-72
2022/11/25 00:02:41;;;;;;;20.73;12.85;;;6.70;99.90;;;;;;5114461;28;20621;-73
2022/11/25 00:05:07;;;;;;;18.75;11.38;;;6.70;99.90;;;;;;5112674;28;20192;-72
2022/11/25 00:07:35;;;;;;;19.43;12.03;;;6.70;99.90;;;;;;5095969;28;20178;-73
2022/11/25 00:10:00;;;;;;;19.80;12.20;;;6.70;99.90;;;;;;5113896;28;20414;-72
2022/11/25 00:12:26;;;;;;;20.23;11.97;;;6.60;99.90;;;;;;5118263;28;20194;-72
2022/11/25 00:14:51;;;;;;;18.20;11.63;;;6.60;99.90;;;;;;5118126;28;20191;-72
2022/11/25 00:17:17;;;;;;;18.00;11.83;;;6.50;99.90;;;;;;5099895;28;20240;-72
2022/11/25 00:19:42;;;;;;;22.43;12.97;;;6.50;99.90;;;;;;5117985;28;20243;-72
2022/11/25 00:22:08;;;;;;;21.23;12.50;;;6.50;99.90;;;;;;5099788;28;20538;-72
2022/11/25 00:24:34;;;;;;;22.20;12.93;;;6.50;99.90;;;;;;5117875;28;20602;-72
2022/11/25 00:27:03;;;;;;;22.57;12.50;;;6.40;99.90;;;;;;5118115;28;20175;-72
2022/11/25 00:29:29;;;;;;;24.95;14.07;;;6.40;99.90;;;;;;5099580;28;20227;-73
2022/11/25 00:31:55;;;;;;;18.77;11.10;;;6.30;99.90;;;;;;5099540;28;20211;-72
2022/11/25 00:34:20;;;;;;;27.10;15.20;;;6.30;99.90;;;;;;5117666;28;20206;-73
2022/11/25 00:36:46;;;;;;;32.20;17.40;;;6.30;99.90;;;;;;5117521;28;20176;-72
2022/11/25 00:39:14;;;;;;;27.97;15.17;;;6.20;99.90;;;;;;5117649;28;20292;-72
2022/11/25 00:44:40;;;;;;;21.33;12.50;;;6.20;99.90;;;;;;5117593;28;20269;-73
2022/11/25 00:47:17;;;;;;;23.52;13.38;;;6.20;99.90;;;;;;5099366;28;20188;-73
2022/11/25 00:49:53;;;;;;;23.63;13.73;;;6.20;99.90;;;;;;5117466;28;20195;-73
2022/11/25 00:52:24;;;;;;;25.17;15.18;;;6.20;99.90;;;;;;5099519;28;20186;-73
2022/11/25 00:54:51;;;;;;;23.45;13.05;;;6.20;99.90;;;;;;5099064;28;20252;-73
2022/11/25 00:57:18;;;;;;;15.70;12.13;;;6.20;99.90;;;;;;5117611;28;20174;-73
2022/11/25 00:59:45;;;;;;;19.67;12.52;;;6.20;99.90;;;;;;5117163;28;20226;-72
2022/11/25 01:02:12;;;;;;;22.58;13.07;;;6.10;99.90;;;;;;5117419;28;20527;-72
2022/11/25 01:04:38;;;;;;;22.65;12.80;;;6.10;99.90;;;;;;5117149;28;20202;-72
2022/11/25 01:07:04;;;;;;;21.25;13.32;;;6.10;99.90;;;;;;5099358;28;20233;-73
2022/11/25 01:09:30;;;;;;;21.67;12.30;;;6.10;99.90;;;;;;5117027;28;20211;-72
2022/11/25 01:11:56;;;;;;;20.40;12.40;;;6.00;99.90;;;;;;5098881;28;20613;-72
2022/11/25 01:14:23;;;;;;;22.17;12.27;;;6.00;99.90;;;;;;5116897;28;20434;-72
2022/11/25 01:16:49;;;;;;;16.08;11.02;;;6.00;99.90;;;;;;5116863;28;20172;-72
2022/11/25 01:19:15;;;;;;;19.57;11.97;;;6.00;99.90;;;;;;5116732;28;20680;-72
2022/11/25 01:21:41;;;;;;;22.40;12.32;;;5.90;99.90;;;;;;5098410;28;20183;-73
2022/11/25 01:24:07;;;;;;;20.88;12.65;;;5.80;99.90;;;;;;5116105;28;20192;-73
2022/11/25 01:26:34;;;;;;;21.97;12.30;;;5.80;99.90;;;;;;5098590;28;20230;-73
2022/11/25 01:29:06;;;;;;;22.48;13.35;;;5.80;99.90;;;;;;5098420;28;20903;-72
2022/11/25 01:31:34;;;;;;;18.52;11.95;;;5.80;99.90;;;;;;5098357;28;20215;-72
2022/11/25 01:34:21;;;;;;;17.98;11.88;;;5.80;99.90;;;;;;5116560;28;20179;-72
2022/11/25 01:36:47;;;;;;;20.55;12.70;;;5.80;99.90;;;;;;5097529;28;20188;-72
2022/11/25 01:39:22;;;;;;;18.00;10.83;;;5.70;99.90;;;;;;5116484;28;20582;-72
2022/11/25 01:41:48;;;;;;;16.13;11.70;;;5.70;99.90;;;;;;5098120;28;20922;-72
2022/11/25 01:44:19;;;;;;;19.75;12.48;;;5.60;99.90;;;;;;5116384;28;20290;-72
2022/11/25 01:47:00;;;;;;;21.25;13.10;;;5.60;99.90;;;;;;5116546;28;20176;-72
2022/11/25 01:49:32;;;;;;;18.65;12.13;;;5.60;99.90;;;;;;5116291;28;20274;-72
2022/11/25 01:52:00;;;;;;;20.65;12.45;;;5.50;99.90;;;;;;5116547;28;20176;-72
2022/11/25 01:54:32;;;;;;;23.33;13.15;;;5.50;99.90;;;;;;5116123;28;20192;-72
2022/11/25 01:57:20;;;;;;;21.48;11.55;;;5.50;99.90;;;;;;5114920;28;20195;-72
2022/11/25 01:59:49;;;;;;;20.33;12.25;;;5.40;99.90;;;;;;5096981;28;20243;-73
2022/11/25 02:02:16;;;;;;;20.90;12.30;;;5.40;99.90;;;;;;5097931;28;20511;-72
2022/11/25 02:04:43;;;;;;;20.15;11.85;;;5.40;99.90;;;;;;5115975;28;20195;-72
2022/11/25 02:07:22;;;;;;;17.67;11.98;;;5.40;99.90;;;;;;5116285;28;20229;-72
2022/11/25 02:09:49;;;;;;;19.60;12.32;;;5.40;99.90;;;;;;5116075;28;20606;-73
2022/11/25 02:12:18;;;;;;;22.30;12.80;;;5.30;99.90;;;;;;5097692;28;20179;-72
2022/11/25 02:14:45;;;;;;;25.05;12.23;;;5.30;99.90;;;;;;5097567;28;20200;-73
2022/11/25 02:17:11;;;;;;;20.58;12.20;;;5.20;99.90;;;;;;5116008;28;20171;-72
2022/11/25 02:19:55;;;;;;;19.47;12.23;;;5.20;99.90;;;;;;5115650;28;20215;-73
2022/11/25 02:22:30;;;;;;;28.30;13.57;;;5.20;99.90;;;;;;5116044;28;20194;-73
2022/11/25 02:25:05;;;;;;;24.73;12.15;;;5.20;99.90;;;;;;5115730;28;20206;-73
2022/11/25 02:27:31;;;;;;;20.08;11.90;;;5.10;99.90;;;;;;5097455;28;20541;-73
2022/11/25 02:29:56;;;;;;;19.63;11.57;;;5.10;99.90;;;;;;5115428;28;20207;-72
2022/11/25 02:32:22;;;;;;;22.83;13.90;;;5.20;99.90;;;;;;5115794;28;20183;-72
2022/11/25 02:34:49;;;;;;;30.55;15.50;;;5.20;99.90;;;;;;5115360;28;20589;-72
2022/11/25 02:37:17;;;;;;;35.88;14.90;;;5.20;99.90;;;;;;5093471;28;20235;-72
2022/11/25 02:39:45;;;;;;;28.92;15.65;;;5.10;99.90;;;;;;5093471;28;20342;-72
2022/11/25 02:42:11;;;;;;;27.35;14.75;;;5.10;99.90;;;;;;5095082;28;20183;-72
2022/11/25 02:44:36;;;;;;;25.23;13.60;;;5.10;99.90;;;;;;5094801;28;20200;-73
2022/11/25 02:47:02;;;;;;;24.20;14.70;;;5.00;99.90;;;;;;5095051;28;20396;-72
2022/11/25 02:49:28;;;;;;;35.33;15.23;;;5.00;99.90;;;;;;5094643;28;20680;-72
2022/11/25 02:51:53;;;;;;;28.00;16.10;;;5.00;99.90;;;;;;5093556;28;20212;-72
2022/11/25 02:54:19;;;;;;;25.03;13.30;;;4.90;99.90;;;;;;5094614;28;20269;-72
2022/11/25 02:56:44;;;;;;;19.50;12.67;;;4.90;99.90;;;;;;5093397;28;20180;-72
2022/11/25 02:59:10;;;;;;;32.50;15.90;;;4.80;99.90;;;;;;5093190;28;20751;-73
2022/11/25 03:01:37;;;;;;;34.67;15.43;;;4.80;99.90;;;;;;5093205;28;20241;-72
2022/11/25 03:04:03;;;;;;;31.00;17.35;;;4.80;99.90;;;;;;5093203;28;20176;-73
2022/11/25 03:06:29;;;;;;;33.30;16.98;;;4.70;99.90;;;;;;5094412;28;20218;-72
2022/11/25 03:08:55;;;;;;;58.17;23.27;;;4.70;99.90;;;;;;5094392;28;20256;-72
2022/11/25 03:12:17;;;;;;;130.35;43.92;;;4.70;99.90;;;;;;5094317;28;20684;-72
2022/11/25 03:14:07;;;;;;;83.07;30.48;;;4.70;99.90;;;;;;5094272;28;20165;-72
2022/11/25 03:16:32;;;;;;;49.83;19.80;;;4.70;99.90;;;;;;5093060;28;20272;-72
2022/11/25 03:18:58;;;;;;;33.90;16.50;;;4.70;99.90;;;;;;5092811;28;20295;-73
2022/11/25 03:21:23;;;;;;;54.90;24.13;;;4.70;99.90;;;;;;5094244;28;20242;-72
2022/11/25 03:23:49;;;;;;;54.43;22.03;;;4.70;99.90;;;;;;5092935;28;20169;-71
2022/11/25 03:26:15;;;;;;;40.47;21.63;;;4.60;99.90;;;;;;5093960;28;20228;-72
2022/11/25 03:28:40;;;;;;;41.27;17.03;;;4.60;99.90;;;;;;5092871;28;20183;-72
2022/11/25 03:31:10;;;;;;;53.90;21.50;;;4.60;99.90;;;;;;5094034;28;20185;-73
2022/11/25 03:33:35;;;;;;;52.15;23.75;;;4.60;99.90;;;;;;5094057;28;20184;-72
2022/11/25 03:36:01;;;;;;;43.50;20.30;;;4.70;99.90;;;;;;5094019;28;20188;-72
2022/11/25 03:38:26;;;;;;;37.43;18.07;;;4.70;99.90;;;;;;5092450;28;20254;-73
2022/11/25 03:40:52;;;;;;;35.67;17.67;;;4.80;99.90;;;;;;5092595;28;20236;-72
2022/11/25 03:43:18;;;;;;;28.37;16.03;;;4.80;99.90;;;;;;5092920;28;20177;-73
2022/11/25 03:45:46;;;;;;;31.60;18.33;;;4.80;99.90;;;;;;5093399;28;20196;-72
2022/11/25 03:48:12;;;;;;;28.83;17.98;;;4.90;99.90;;;;;;5092701;28;20259;-72
2022/11/25 03:50:37;;;;;;;33.20;18.67;;;4.90;99.90;;;;;;5093906;28;20200;-72
2022/11/25 03:53:03;;;;;;;45.27;22.40;;;4.90;99.90;;;;;;5092743;28;20187;-73
2022/11/25 03:55:29;;;;;;;37.17;19.70;;;4.90;99.90;;;;;;5093715;28;20235;-72
2022/11/25 03:57:55;;;;;;;39.28;21.67;;;4.90;99.90;;;;;;5094235;28;20211;-72
2022/11/25 04:00:20;;;;;;;44.10;24.10;;;4.90;99.90;;;;;;5092381;28;20220;-72
2022/11/25 04:02:46;;;;;;;40.27;22.07;;;4.90;99.90;;;;;;5092401;28;20546;-72
2022/11/25 04:05:12;;;;;;;37.33;21.13;;;5.00;99.90;;;;;;5093623;28;20196;-72
2022/11/25 04:07:37;;;;;;;31.90;18.87;;;5.00;99.90;;;;;;5092526;28;20172;-73
2022/11/25 04:10:03;;;;;;;27.37;15.63;;;5.00;99.90;;;;;;5093651;28;20245;-72
2022/11/25 04:12:47;;;;;;;32.13;17.95;;;5.00;99.90;;;;;;5093891;28;20180;-72
2022/11/25 04:15:17;;;;;;;32.08;18.05;;;5.00;99.90;;;;;;5092331;28;20196;-73
2022/11/25 04:17:43;;;;;;;27.52;17.33;;;5.00;99.90;;;;;;5094043;28;20207;-72
2022/11/25 04:20:10;;;;;;;31.37;18.33;;;5.00;99.90;;;;;;5092114;28;20644;-72
2022/11/25 04:22:36;;;;;;;27.60;16.42;;;5.00;99.90;;;;;;5093916;28;20528;-72
2022/11/25 04:25:01;;;;;;;26.63;15.73;;;4.90;99.90;;;;;;5093563;28;20189;-72
2022/11/25 04:27:27;;;;;;;24.97;14.13;;;4.90;99.90;;;;;;5093672;28;20222;-72
2022/11/25 04:29:52;;;;;;;26.30;15.40;;;4.90;99.90;;;;;;5092192;28;20203;-72
2022/11/25 04:32:18;;;;;;;27.03;15.53;;;4.90;99.90;;;;;;5092307;28;20177;-72
2022/11/25 04:34:43;;;;;;;28.10;14.50;;;4.80;99.90;;;;;;5093354;28;20200;-72
2022/11/25 04:37:09;;;;;;;24.20;14.67;;;4.80;99.90;;;;;;5098513;28;20253;-72
2022/11/25 04:39:35;;;;;;;23.03;13.40;;;4.80;99.90;;;;;;5113645;28;20260;-72
2022/11/25 04:44:45;;;;;;;22.13;13.60;;;4.70;99.90;;;;;;5113920;28;20750;-72
2022/11/25 04:47:10;;;;;;;24.47;14.10;;;4.60;99.90;;;;;;5113940;28;20176;-72
2022/11/25 04:49:36;;;;;;;20.73;12.90;;;4.60;99.90;;;;;;5113574;28;20216;-72
2022/11/25 04:52:02;;;;;;;22.70;13.30;;;4.60;99.90;;;;;;5113827;28;20176;-72
2022/11/25 04:54:27;;;;;;;23.63;13.32;;;4.60;99.90;;;;;;5113227;28;20196;-72
2022/11/25 04:56:53;;;;;;;19.57;13.20;;;4.60;99.90;;;;;;5095150;28;20191;-72
2022/11/25 05:02:02;;;;;;;23.55;13.88;;;4.60;99.90;;;;;;5097744;28;20318;-72
2022/11/25 05:04:28;;;;;;;21.93;12.87;;;4.60;99.90;;;;;;5096737;28;20216;-72
2022/11/25 05:06:54;;;;;;;24.10;15.00;;;4.60;99.90;;;;;;5078393;28;20179;-72
2022/11/25 05:09:20;;;;;;;22.10;14.00;;;4.60;99.90;;;;;;5078384;28;20295;-72
2022/11/25 05:11:46;;;;;;;29.42;14.20;;;4.60;99.90;;;;;;5096826;28;20597;-72
2022/11/25 05:14:11;;;;;;;24.40;14.70;;;4.60;99.90;;;;;;5096457;28;20173;-72
2022/11/25 05:16:37;;;;;;;30.13;15.70;;;4.60;99.90;;;;;;5078111;28;20176;-72
2022/11/25 05:19:03;;;;;;;25.27;15.50;;;4.60;99.90;;;;;;5096522;28;20795;-73
2022/11/25 05:21:28;;;;;;;33.77;18.43;;;4.60;99.90;;;;;;5078321;28;20179;-72
2022/11/25 05:23:54;;;;;;;32.33;15.40;;;4.60;99.90;;;;;;5078247;28;20191;-72
2022/11/25 05:26:20;;;;;;;30.87;14.27;;;4.60;99.90;;;;;;5093431;28;20706;-72
2022/11/25 05:28:45;;;;;;;31.83;18.53;;;4.60;99.90;;;;;;5112812;27;20226;-72
2022/11/25 05:31:11;;;;;;;32.47;18.90;;;4.60;99.90;;;;;;5095176;28;20665;-72
2022/11/25 05:33:37;;;;;;;28.80;16.00;;;4.70;99.90;;;;;;5094796;28;20185;-72
2022/11/25 05:36:03;;;;;;;54.43;31.37;;;4.60;99.90;;;;;;5109882;28;20403;-72
2022/11/25 05:38:29;;;;;;;30.27;17.15;;;4.70;99.90;;;;;;5115184;28;20478;-72
2022/11/25 05:41:06;;;;;;;30.80;18.50;;;4.70;99.90;;;;;;5115302;28;20219;-72
2022/11/25 05:43:32;;;;;;;40.08;18.13;;;4.70;99.90;;;;;;5115317;28;20745;-72
2022/11/25 05:45:58;;;;;;;42.15;22.80;;;4.80;99.90;;;;;;5113558;27;20200;-72
2022/11/25 05:48:23;;;;;;;34.50;19.03;;;4.80;99.90;;;;;;5096157;28;20179;-72
2022/11/25 05:50:49;;;;;;;33.30;17.93;;;4.80;99.90;;;;;;5095773;28;20706;-72
2022/11/25 05:53:18;;;;;;;34.73;16.23;;;4.80;99.90;;;;;;5114463;28;20915;-72
2022/11/25 05:55:43;;;;;;;33.92;18.23;;;4.80;99.90;;;;;;5114023;28;20188;-72
2022/11/25 05:58:09;;;;;;;44.70;28.97;;;4.80;99.90;;;;;;5114179;28;20804;-72
2022/11/25 06:00:35;;;;;;;31.27;18.23;;;4.80;99.90;;;;;;5093935;28;20210;-72
2022/11/25 06:03:00;;;;;;;32.97;17.03;;;4.80;99.90;;;;;;5114089;28;20229;-72
2022/11/25 06:05:26;;;;;;;35.43;17.00;;;4.80;99.90;;;;;;5097648;28;20191;-72
2022/11/25 06:07:52;;;;;;;31.37;17.90;;;4.80;99.90;;;;;;5114726;28;20251;-73
2022/11/25 06:10:19;;;;;;;35.60;19.80;;;4.80;99.90;;;;;;5088578;28;20295;-72
2022/11/25 06:12:44;;;;;;;36.35;20.70;;;4.80;99.90;;;;;;5077595;28;20177;-72
2022/11/25 06:15:11;;;;;;;37.43;21.20;;;4.80;99.90;;;;;;5095313;28;20272;-73
2022/11/25 06:17:36;;;;;;;41.40;21.55;;;4.80;99.90;;;;;;5095856;27;20196;-72
2022/11/25 06:20:04;;;;;;;33.30;20.27;;;4.80;99.90;;;;;;5119567;27;20220;-72
2022/11/25 06:22:30;;;;;;;38.38;21.55;;;4.80;99.90;;;;;;5099934;28;20214;-73
2022/11/25 06:24:56;;;;;;;40.37;23.63;;;4.80;99.90;;;;;;5101242;28;20203;-73
2022/11/25 06:27:21;;;;;;;38.70;23.97;;;4.80;99.90;;;;;;5103729;28;20561;-73
2022/11/25 06:29:50;;;;;;;46.97;26.40;;;4.80;99.90;;;;;;5104757;28;20217;-72
2022/11/25 06:32:15;;;;;;;47.58;24.83;;;4.80;99.90;;;;;;5098991;28;20672;-71
2022/11/25 06:34:41;;;;;;;46.70;25.70;;;4.80;99.90;;;;;;5102481;28;20741;-71
2022/11/25 06:37:07;;;;;;;49.45;25.05;;;4.80;99.90;;;;;;5101866;28;20688;-71
2022/11/25 06:39:33;;;;;;;46.90;27.40;;;4.80;99.90;;;;;;5102058;28;20299;-71
2022/11/25 06:41:59;;;;;;;53.80;28.30;;;4.80;99.90;;;;;;5084489;28;20263;-71
2022/11/25 06:44:24;;;;;;;49.30;27.27;;;4.80;99.90;;;;;;5101607;28;20203;-71
2022/11/25 06:46:50;;;;;;;50.27;28.37;;;4.80;99.90;;;;;;5084706;28;20183;-71
2022/11/25 06:49:15;;;;;;;51.37;29.17;;;4.80;99.90;;;;;;5104378;28;20264;-71
2022/11/25 06:51:41;;;;;;;58.00;31.73;;;4.90;99.90;;;;;;5085513;28;20180;-71
2022/11/25 06:54:07;;;;;;;58.80;31.93;;;4.90;99.90;;;;;;5081876;28;20663;-71
2022/11/25 06:56:33;;;;;;;49.08;28.20;;;5.00;99.90;;;;;;5082630;28;20180;-71
2022/11/25 06:58:58;;;;;;;43.93;22.40;;;5.10;99.90;;;;;;5084567;27;20901;-71
2022/11/25 07:01:26;;;;;;;42.43;23.87;;;5.20;99.90;;;;;;5100956;28;20168;-71
2022/11/25 07:03:55;;;;;;;52.55;28.13;;;5.40;99.90;;;;;;5087569;28;20187;-71
2022/11/25 07:06:21;;;;;;;61.53;34.67;;;5.50;99.90;;;;;;5098626;28;20172;-71
2022/11/25 07:08:47;;;;;;;74.10;42.10;;;5.60;99.90;;;;;;5097004;28;20179;-71
2022/11/25 07:11:23;;;;;;;59.70;35.28;;;5.70;99.90;;;;;;5095943;28;20203;-71
2022/11/25 07:13:52;;;;;;;37.47;22.98;;;5.70;99.90;;;;;;5101295;28;20191;-71
2022/11/25 07:16:18;;;;;;;39.85;21.30;;;5.80;99.90;;;;;;5066939;28;20189;-71
2022/11/25 07:18:44;;;;;;;37.20;21.00;;;5.80;99.90;;;;;;5102656;28;20616;-71
2022/11/25 07:21:14;;;;;;;32.80;23.40;;;5.90;99.90;;;;;;5101802;28;20734;-71
2022/11/25 07:23:41;;;;;;;43.45;25.23;;;5.90;99.90;;;;;;5092727;28;20192;-71
2022/11/25 07:26:09;;;;;;;42.53;26.48;;;6.00;99.90;;;;;;5091480;28;20193;-71
2022/11/25 07:28:36;;;;;;;52.08;28.60;;;6.10;99.90;;;;;;5091118;28;20997;-71
2022/11/25 07:31:07;;;;;;;54.67;29.73;;;6.30;99.90;;;;;;5090468;28;20188;-71
2022/11/25 07:33:33;;;;;;;45.47;26.40;;;6.50;99.90;;;;;;5096220;28;20184;-71
2022/11/25 07:36:07;;;;;;;42.80;22.95;;;6.60;99.90;;;;;;5099258;28;20727;-71
2022/11/25 07:38:34;;;;;;;39.45;23.27;;;7.00;99.90;;;;;;5101229;28;20271;-71
2022/11/25 07:41:05;;;;;;;39.10;21.75;;;7.40;99.90;;;;;;5102399;28;20335;-71
2022/11/25 07:43:31;;;;;;;37.17;19.92;;;7.90;99.90;;;;;;5076468;28;20195;-71
2022/11/25 07:46:07;;;;;;;31.88;19.10;;;8.30;99.90;;;;;;5084360;28;20200;-71
2022/11/25 07:48:33;;;;;;;36.55;19.77;;;8.80;99.90;;;;;;5076123;28;20185;-71
2022/11/25 07:50:59;;;;;;;34.70;21.30;;;9.40;99.90;;;;;;5075611;28;20207;-72
2022/11/25 07:53:24;;;;;;;32.97;20.90;;;10.10;99.90;;;;;;5094801;28;20180;-74
2022/11/25 07:55:50;;;;;;;32.40;20.63;;;10.70;99.90;;;;;;5080620;28;20207;-72
2022/11/25 07:58:15;;;;;;;32.10;19.93;;;11.40;99.90;;;;;;5099477;28;20622;-71
2022/11/25 08:00:41;;;;;;;38.73;22.80;;;12.00;99.90;;;;;;5094571;28;20563;-72
2022/11/25 08:03:06;;;;;;;35.97;24.77;;;12.60;99.90;;;;;;5097916;28;20234;-72
2022/11/25 08:05:32;;;;;;;35.23;22.03;;;13.10;99.90;;;;;;5078295;28;20204;-71
2022/11/25 08:07:58;;;;;;;37.37;23.67;;;13.70;99.90;;;;;;5100085;28;20180;-72
2022/11/25 08:10:24;;;;;;;46.23;26.93;;;14.20;99.90;;;;;;5081631;28;20977;-71
2022/11/25 08:12:49;;;;;;;42.70;28.33;;;14.60;99.90;;;;;;5085298;28;20667;-73
2022/11/25 08:15:15;;;;;;;38.63;26.83;;;15.00;99.90;;;;;;5096304;28;20684;-71
2022/11/25 08:17:40;;;;;;;30.20;20.33;;;15.30;99.90;;;;;;5092902;28;20198;-71
2022/11/25 08:20:06;;;;;;;30.00;19.53;;;15.60;99.90;;;;;;5084958;28;20743;-71
2022/11/25 08:22:32;;;;;;;43.07;29.50;;;15.90;99.90;;;;;;5098791;28;21008;-71
2022/11/25 08:24:58;;;;;;;47.33;31.23;;;16.00;99.90;;;;;;5078507;28;20456;-71
2022/11/25 08:27:23;;;;;;;58.20;39.17;;;16.10;99.90;;;;;;5093395;28;20212;-71
2022/11/25 08:29:49;;;;;;;41.90;29.40;;;16.10;99.90;;;;;;5098139;28;20204;-71
2022/11/25 08:32:14;;;;;;;34.33;20.87;;;15.90;99.90;;;;;;5078657;28;20259;-73
2022/11/25 08:34:41;;;;;;;28.30;20.37;;;15.70;99.90;;;;;;5082791;28;20204;-73
2022/11/25 08:37:07;;;;;;;28.33;18.63;;;15.50;99.90;;;;;;5102786;28;20338;-73
2022/11/25 08:39:33;;;;;;;26.17;17.83;;;15.40;99.90;;;;;;5089222;28;20483;-73
2022/11/25 08:42:03;;;;;;;27.77;18.03;;;15.30;99.90;;;;;;5107301;28;20882;-73
2022/11/25 08:44:29;;;;;;;29.50;19.33;;;15.20;99.90;;;;;;5087765;28;20451;-73
2022/11/25 08:46:55;;;;;;;27.17;16.87;;;15.00;99.90;;;;;;5090763;28;20484;-73
2022/11/25 08:49:20;;;;;;;28.37;18.30;;;14.90;99.90;;;;;;5088240;28;20729;-74
2022/11/25 08:51:47;;;;;;;27.60;17.77;;;14.90;99.90;;;;;;5086568;28;20433;-73
2022/11/25 08:54:13;;;;;;;28.50;19.30;;;14.90;99.90;;;;;;5087059;28;20415;-74
2022/11/25 08:56:39;;;;;;;25.77;19.20;;;14.90;99.90;;;;;;5102943;28;20523;-74
2022/11/25 08:59:05;;;;;;;32.83;21.20;;;14.80;99.90;;;;;;5083523;28;21052;-75
2022/11/25 09:01:31;;;;;;;36.23;23.47;;;14.70;99.90;;;;;;5112254;28;20649;-74
2022/11/25 09:03:57;;;;;;;34.80;22.60;;;14.80;99.90;;;;;;5096458;28;20503;-72
2022/11/25 09:06:25;;;;;;;28.43;19.03;;;15.00;99.90;;;;;;5095030;28;20412;-73
2022/11/25 09:08:55;;;;;;;29.90;19.10;;;15.20;99.90;;;;;;5101891;28;20422;-72
2022/11/25 09:11:20;;;;;;;28.83;19.07;;;15.30;99.90;;;;;;5095842;28;20417;-73
2022/11/25 09:13:46;;;;;;;33.30;21.30;;;15.50;99.90;;;;;;5100616;28;20420;-73
2022/11/25 09:16:12;;;;;;;29.23;19.20;;;15.60;99.90;;;;;;5094717;28;20668;-73
2022/11/25 09:18:38;;;;;;;28.40;18.77;;;15.70;99.90;;;;;;5081476;28;20573;-73
2022/11/25 09:21:10;;;;;;;34.83;20.03;;;15.80;99.90;;;;;;5101439;28;20242;-73
2022/11/25 09:23:37;;;;;;;29.97;19.90;;;15.70;99.90;;;;;;5100333;28;20425;-74
2022/11/25 09:26:04;;;;;;;29.97;21.50;;;15.70;99.90;;;;;;5082339;28;21033;-73
2022/11/25 09:28:30;;;;;;;31.30;19.60;;;15.80;99.90;;;;;;5083585;28;20473;-73
2022/11/25 09:30:55;;;;;;;29.53;17.80;;;15.90;99.90;;;;;;5104570;28;20432;-73
2022/11/25 09:33:22;;;;;;;26.97;17.63;;;16.00;99.90;;;;;;5112604;28;20259;-73
2022/11/25 09:35:49;;;;;;;29.17;18.20;;;16.20;99.90;;;;;;5087837;28;20223;-74
2022/11/25 09:38:14;;;;;;;28.90;18.93;;;16.40;99.90;;;;;;5093034;28;20469;-72
2022/11/25 09:40:46;;;;;;;26.73;17.83;;;16.60;99.90;;;;;;5093603;28;20440;-72
2022/11/25 09:46:44;;;;;;;28.60;18.83;;;16.70;99.90;;;;;;5102767;28;20524;-73
2022/11/25 09:49:30;;;;;;;29.60;20.07;;;16.70;99.90;;;;;;5103078;28;20474;-73
2022/11/25 09:52:22;;;;;;;28.70;19.03;;;16.60;99.90;;;;;;5104429;28;20413;-73
2022/11/25 09:55:16;;;;;;;29.00;19.30;;;16.50;99.90;;;;;;5102451;28;20521;-74
2022/11/25 09:58:04;;;;;;;29.73;18.97;;;16.40;99.90;;;;;;5103561;28;20902;-74
2022/11/25 10:00:41;;;;;;;30.83;19.67;;;16.10;99.90;;;;;;5082758;28;20534;-74
2022/11/25 10:03:28;;;;;;;31.83;17.70;;;15.80;99.90;;;;;;5085033;28;20515;-73
2022/11/25 10:06:18;;;;;;;31.53;19.97;;;15.50;99.90;;;;;;5077215;28;20453;-73
2022/11/25 10:08:48;;;;;;;30.40;19.50;;;15.20;99.90;;;;;;5093371;28;20914;-73
2022/11/25 10:11:23;;;;;;;29.20;18.70;;;14.90;99.90;;;;;;5093089;28;20413;-73
2022/11/25 10:14:20;;;;;;;27.27;19.53;;;14.60;99.90;;;;;;5092649;28;20795;-73
2022/11/25 10:16:50;;;;;;;33.03;20.33;;;14.50;99.90;;;;;;5079258;28;21016;-73
2022/11/25 10:19:35;;;;;;;33.90;20.37;;;14.30;99.90;;;;;;5110192;28;20483;-73
2022/11/25 10:22:16;;;;;;;33.33;19.73;;;14.20;99.90;;;;;;5102992;28;20753;-73
2022/11/25 10:24:41;;;;;;;32.53;20.63;;;14.10;99.90;;;;;;5114839;28;20448;-73
2022/11/25 10:27:16;;;;;;;33.23;20.63;;;14.10;99.90;;;;;;5094727;28;20966;-73
2022/11/25 10:29:42;;;;;;;29.20;19.00;;;14.00;99.90;;;;;;5112953;28;20287;-73
2022/11/25 10:32:32;;;;;;;35.30;21.40;;;13.90;99.90;;;;;;5111919;28;20423;-73
2022/11/25 10:35:03;;;;;;;32.87;21.33;;;13.80;99.90;;;;;;5111201;28;20806;-73
2022/11/25 10:37:34;;;;;;;40.93;21.90;;;13.70;99.90;;;;;;5110373;28;20566;-73
2022/11/25 10:39:59;;;;;;;33.03;19.47;;;13.60;99.90;;;;;;5110191;28;20492;-73
2022/11/25 10:42:27;;;;;;;36.17;20.20;;;13.50;99.90;;;;;;5108234;28;20466;-73
2022/11/25 10:44:54;;;;;;;31.70;18.97;;;13.30;99.90;;;;;;5092977;28;20808;-73
2022/11/25 10:47:34;;;;;;;27.60;18.97;;;13.20;99.90;;;;;;5109978;28;20419;-74
2022/11/25 10:50:06;;;;;;;32.33;18.40;;;13.10;99.90;;;;;;5084738;28;20493;-73
2022/11/25 10:52:55;;;;;;;30.77;17.20;;;13.00;99.90;;;;;;5098193;28;20890;-74
2022/11/25 10:55:27;;;;;;;31.57;18.40;;;12.90;99.90;;;;;;5094031;28;20452;-73
2022/11/25 10:57:53;;;;;;;30.50;18.90;;;12.70;99.90;;;;;;5084125;28;20488;-73
2022/11/25 11:00:35;;;;;;;29.97;16.90;;;12.70;99.90;;;;;;5107879;28;20512;-73
2022/11/25 11:03:24;;;;;;;28.40;17.37;;;12.60;99.90;;;;;;5074864;28;20444;-73
2022/11/25 11:05:52;;;;;;;55.27;33.43;;;12.50;99.90;;;;;;5096738;28;20451;-73
2022/11/25 11:08:20;;;;;;;45.53;27.13;;;12.40;99.90;;;;;;5082937;28;20443;-73
2022/11/25 11:10:46;;;;;;;35.97;21.07;;;12.40;99.90;;;;;;5101451;28;20446;-74
2022/11/25 11:13:31;;;;;;;28.20;16.57;;;12.30;99.90;;;;;;5101657;28;20510;-74
2022/11/25 11:15:57;;;;;;;34.73;20.73;;;12.30;99.90;;;;;;5101949;28;20460;-74
2022/11/25 11:18:38;;;;;;;31.57;18.43;;;12.10;99.90;;;;;;5104464;28;20436;-72
2022/11/25 11:21:21;;;;;;;26.73;16.93;;;12.10;99.90;;;;;;5089045;28;21047;-74
2022/11/25 11:23:49;;;;;;;32.07;18.60;;;12.00;99.90;;;;;;5105511;28;20503;-74
2022/11/25 11:26:24;;;;;;;28.20;18.03;;;12.00;99.90;;;;;;5113751;28;20424;-72
2022/11/25 11:28:58;;;;;;;27.20;16.70;;;12.00;99.90;;;;;;5088410;28;20438;-74
2022/11/25 11:31:39;;;;;;;26.30;16.10;;;12.00;99.90;;;;;;5092410;28;20420;-74
2022/11/25 11:34:31;;;;;;;25.97;15.20;;;12.00;99.90;;;;;;5091253;28;20513;-72
2022/11/25 11:37:17;;;;;;;28.13;16.20;;;12.00;99.90;;;;;;5112906;28;20463;-71
2022/11/25 11:40:01;;;;;;;27.27;17.70;;;12.00;99.90;;;;;;5102711;28;20886;-70
2022/11/25 11:42:50;;;;;;;27.30;15.87;;;11.90;99.90;;;;;;5089035;28;20420;-70
2022/11/25 11:45:29;;;;;;;28.03;16.63;;;11.90;99.90;;;;;;5102004;28;21124;-74
2022/11/25 11:48:27;;;;;;;28.47;17.10;;;11.90;99.90;;;;;;5102979;28;20972;-70
2022/11/25 11:51:16;;;;;;;29.57;18.17;;;11.90;99.90;;;;;;5081780;28;20452;-73
2022/11/25 11:54:16;;;;;;;30.00;18.23;;;11.90;99.90;;;;;;5105499;28;20468;-67
2022/11/25 11:56:45;;;;;;;32.10;18.30;;;11.80;99.90;;;;;;5024441;28;20476;-73
2022/11/25 11:59:41;;;;;;;33.77;18.67;;;11.80;99.90;;;;;;5096490;28;20505;-74
2022/11/25 12:02:20;;;;;;;27.33;16.93;;;11.80;99.90;;;;;;5078023;28;20474;-66
2022/11/25 12:05:05;;;;;;;25.30;16.80;;;11.70;99.90;;;;;;5083459;28;20570;-68
2022/11/25 12:07:33;;;;;;;24.73;15.57;;;11.70;99.90;;;;;;5078276;28;20527;-69
2022/11/25 12:10:14;;;;;;;29.63;16.40;;;11.70;99.90;;;;;;5106043;28;20512;-74
2022/11/25 12:12:58;;;;;;;28.07;16.80;;;11.70;99.90;;;;;;5103706;28;20439;-71
2022/11/25 12:15:35;;;;;;;25.47;15.80;;;11.70;99.90;;;;;;5099918;28;20858;-72
2022/11/25 12:18:23;;;;;;;29.57;17.00;;;11.70;99.90;;;;;;5096198;28;20430;-74
2022/11/25 12:20:56;;;;;;;28.87;17.97;;;11.70;99.90;;;;;;5059264;28;20500;-69
2022/11/25 12:23:36;;;;;;;30.10;17.23;;;11.70;99.90;;;;;;5103972;28;20438;-71
2022/11/25 12:26:10;;;;;;;30.10;16.13;;;11.70;99.90;;;;;;5085961;28;20970;-72
2022/11/25 12:28:50;;;;;;;29.10;16.13;;;11.70;99.90;;;;;;5112184;28;20511;-68
2022/11/25 12:31:23;;;;;;;32.60;18.27;;;11.80;99.90;;;;;;5110328;28;20494;-68
2022/11/25 12:34:02;;;;;;;27.20;16.27;;;11.80;99.90;;;;;;5116584;28;20400;-68
2022/11/25 12:36:32;;;;;;;25.17;17.70;;;11.80;99.90;;;;;;5103017;28;20437;-72
2022/11/25 12:39:03;;;;;;;28.43;16.50;;;11.80;99.90;;;;;;5109932;28;20471;-71
2022/11/25 12:41:46;;;;;;;30.10;17.80;;;11.80;99.90;;;;;;5099412;28;20759;-67
2022/11/25 12:44:22;;;;;;;27.77;15.90;;;11.80;99.90;;;;;;5102802;28;21131;-67
2022/11/25 12:46:52;;;;;;;28.83;18.90;;;11.80;99.90;;;;;;5092027;28;20444;-70
2022/11/25 12:49:26;;;;;;;27.10;16.93;;;11.80;99.90;;;;;;5101229;28;20443;-68
2022/11/25 12:52:26;;;;;;;26.37;17.23;;;11.80;99.90;;;;;;5073249;28;20454;-68
2022/11/25 12:55:11;;;;;;;25.87;15.10;;;11.80;99.90;;;;;;5092673;28;20445;-71
2022/11/25 12:58:20;;;;;;;22.90;15.03;;;11.80;99.90;;;;;;5096864;28;20416;-67